sensor_id;sensor_type;location;lat;lon;timestamp;P1;durP1;ratioP1;P2;durP2;ratioP2
1206;SDS011;593;53.184;8.216;2022-08-04T00:00:16;10.13;;;8.70;;
1206;SDS011;593;53.184;8.216;2022-08-04T00:08:04;12.03;;;9.27;;
1206;SDS011;593;53.184;8.216;2022-08-04T00:10:38;11.17;;;9.60;;
1206;SDS011;593;53.184;8.216;2022-08-04T00:13:06;13.03;;;9.53;;
1206;SDS011;593;53.184;8.216;2022-08-04T00:15:33;14.60;;;9.63;;
1206;SDS011;593;53.184;8.216;2022-08-04T00:18:00;13.50;;;9.57;;
1206;SDS011;593;53.184;8.216;2022-08-04T00:20:29;10.60;;;8.80;;
1206;SDS011;593;53.184;8.216;2022-08-04T00:22:58;14.03;;;9.30;;
1206;SDS011;593;53.184;8.216;2022-08-04T00:25:25;13.17;;;10.60;;
1206;SDS011;593;53.184;8.216;2022-08-04T00:27:50;14.83;;;10.47;;
1206;SDS011;593;53.184;8.216;2022-08-04T00:30:16;16.17;;;10.27;;
1206;SDS011;593;53.184;8.216;2022-08-04T00:32:42;10.03;;;9.03;;
1206;SDS011;593;53.184;8.216;2022-08-04T00:35:08;12.57;;;8.90;;
1206;SDS011;593;53.184;8.216;2022-08-04T00:37:35;14.33;;;10.70;;
1206;SDS011;593;53.184;8.216;2022-08-04T00:40:02;10.57;;;9.07;;
1206;SDS011;593;53.184;8.216;2022-08-04T00:46:01;18.07;;;10.20;;
1206;SDS011;593;53.184;8.216;2022-08-04T00:54:17;12.40;;;8.90;;
1206;SDS011;593;53.184;8.216;2022-08-04T01:00:14;11.73;;;9.90;;
1206;SDS011;593;53.184;8.216;2022-08-04T01:02:50;11.50;;;10.07;;
1206;SDS011;593;53.184;8.216;2022-08-04T01:08:37;13.57;;;9.70;;
1206;SDS011;593;53.184;8.216;2022-08-04T01:16:37;12.07;;;8.60;;
1206;SDS011;593;53.184;8.216;2022-08-04T01:24:57;14.33;;;9.40;;
1206;SDS011;593;53.184;8.216;2022-08-04T01:30:19;10.87;;;8.23;;
1206;SDS011;593;53.184;8.216;2022-08-04T01:37:54;11.90;;;10.30;;
1206;SDS011;593;53.184;8.216;2022-08-04T01:40:27;13.57;;;9.47;;
1206;SDS011;593;53.184;8.216;2022-08-04T01:42:53;13.20;;;9.20;;
1206;SDS011;593;53.184;8.216;2022-08-04T01:45:20;14.13;;;10.00;;
1206;SDS011;593;53.184;8.216;2022-08-04T01:47:49;12.70;;;11.07;;
1206;SDS011;593;53.184;8.216;2022-08-04T01:50:17;13.47;;;10.50;;
1206;SDS011;593;53.184;8.216;2022-08-04T01:52:43;14.40;;;10.10;;
1206;SDS011;593;53.184;8.216;2022-08-04T01:55:10;11.97;;;10.77;;
1206;SDS011;593;53.184;8.216;2022-08-04T01:57:40;15.90;;;10.83;;
1206;SDS011;593;53.184;8.216;2022-08-04T02:00:17;14.40;;;11.50;;
1206;SDS011;593;53.184;8.216;2022-08-04T02:02:44;11.07;;;9.90;;
1206;SDS011;593;53.184;8.216;2022-08-04T02:05:10;14.40;;;11.70;;
1206;SDS011;593;53.184;8.216;2022-08-04T02:13:36;12.10;;;9.93;;
1206;SDS011;593;53.184;8.216;2022-08-04T02:15:52;13.10;;;10.60;;
1206;SDS011;593;53.184;8.216;2022-08-04T02:21:12;14.30;;;10.63;;
1206;SDS011;593;53.184;8.216;2022-08-04T02:23:41;13.43;;;9.97;;
1206;SDS011;593;53.184;8.216;2022-08-04T02:26:15;12.27;;;8.90;;
1206;SDS011;593;53.184;8.216;2022-08-04T02:34:20;15.97;;;9.43;;
1206;SDS011;593;53.184;8.216;2022-08-04T02:36:52;14.00;;;10.30;;
1206;SDS011;593;53.184;8.216;2022-08-04T02:39:19;12.67;;;10.40;;
1206;SDS011;593;53.184;8.216;2022-08-04T02:41:46;14.23;;;11.00;;
1206;SDS011;593;53.184;8.216;2022-08-04T02:44:13;10.47;;;9.37;;
1206;SDS011;593;53.184;8.216;2022-08-04T02:46:44;15.07;;;10.60;;
1206;SDS011;593;53.184;8.216;2022-08-04T02:49:12;13.30;;;9.80;;
1206;SDS011;593;53.184;8.216;2022-08-04T02:51:40;13.47;;;9.57;;
1206;SDS011;593;53.184;8.216;2022-08-04T02:54:07;14.53;;;9.83;;
1206;SDS011;593;53.184;8.216;2022-08-04T02:56:34;13.10;;;9.47;;
1206;SDS011;593;53.184;8.216;2022-08-04T02:59:02;13.77;;;9.10;;
1206;SDS011;593;53.184;8.216;2022-08-04T03:01:31;14.20;;;9.40;;
1206;SDS011;593;53.184;8.216;2022-08-04T03:06:51;15.93;;;11.53;;
1206;SDS011;593;53.184;8.216;2022-08-04T03:09:45;15.40;;;10.50;;
1206;SDS011;593;53.184;8.216;2022-08-04T03:18:00;11.77;;;9.43;;
1206;SDS011;593;53.184;8.216;2022-08-04T03:20:55;14.17;;;9.90;;
1206;SDS011;593;53.184;8.216;2022-08-04T03:26:50;12.63;;;10.43;;
1206;SDS011;593;53.184;8.216;2022-08-04T03:32:20;11.57;;;8.67;;
1206;SDS011;593;53.184;8.216;2022-08-04T03:40:45;10.30;;;8.53;;
1206;SDS011;593;53.184;8.216;2022-08-04T03:43:26;12.90;;;8.80;;
1206;SDS011;593;53.184;8.216;2022-08-04T03:46:29;10.40;;;9.20;;
1206;SDS011;593;53.184;8.216;2022-08-04T03:52:00;14.40;;;8.47;;
1206;SDS011;593;53.184;8.216;2022-08-04T04:00:19;12.77;;;8.90;;
1206;SDS011;593;53.184;8.216;2022-08-04T04:02:59;12.77;;;8.50;;
1206;SDS011;593;53.184;8.216;2022-08-04T04:16:17;8.73;;;7.83;;
1206;SDS011;593;53.184;8.216;2022-08-04T04:18:53;12.60;;;7.70;;
1206;SDS011;593;53.184;8.216;2022-08-04T04:24:43;8.70;;;7.03;;
1206;SDS011;593;53.184;8.216;2022-08-04T04:27:42;8.90;;;6.67;;
1206;SDS011;593;53.184;8.216;2022-08-04T04:30:15;8.90;;;6.73;;
1206;SDS011;593;53.184;8.216;2022-08-04T04:48:47;5.80;;;5.20;;
1206;SDS011;593;53.184;8.216;2022-08-04T04:51:22;9.90;;;6.57;;
1206;SDS011;593;53.184;8.216;2022-08-04T04:57:04;7.27;;;5.53;;
1206;SDS011;593;53.184;8.216;2022-08-04T04:59:35;8.97;;;5.63;;
1206;SDS011;593;53.184;8.216;2022-08-04T05:10:26;5.97;;;4.27;;
1206;SDS011;593;53.184;8.216;2022-08-04T05:13:41;7.30;;;4.83;;
1206;SDS011;593;53.184;8.216;2022-08-04T05:18:45;6.80;;;5.23;;
1206;SDS011;593;53.184;8.216;2022-08-04T05:21:37;7.20;;;4.43;;
1206;SDS011;593;53.184;8.216;2022-08-04T05:24:07;11.97;;;4.90;;
1206;SDS011;593;53.184;8.216;2022-08-04T05:26:38;6.27;;;4.23;;
1206;SDS011;593;53.184;8.216;2022-08-04T05:29:08;5.83;;;3.53;;
1206;SDS011;593;53.184;8.216;2022-08-04T05:31:38;7.03;;;3.87;;
1206;SDS011;593;53.184;8.216;2022-08-04T05:34:14;10.67;;;4.13;;
1206;SDS011;593;53.184;8.216;2022-08-04T05:36:47;6.93;;;4.13;;
1206;SDS011;593;53.184;8.216;2022-08-04T05:39:17;6.50;;;5.90;;
1206;SDS011;593;53.184;8.216;2022-08-04T05:41:46;5.10;;;3.70;;
1206;SDS011;593;53.184;8.216;2022-08-04T05:44:16;5.27;;;3.83;;
1206;SDS011;593;53.184;8.216;2022-08-04T05:46:44;3.60;;;3.30;;
1206;SDS011;593;53.184;8.216;2022-08-04T05:49:13;4.30;;;3.33;;
1206;SDS011;593;53.184;8.216;2022-08-04T05:51:41;6.73;;;3.50;;
1206;SDS011;593;53.184;8.216;2022-08-04T05:54:08;4.30;;;3.80;;
1206;SDS011;593;53.184;8.216;2022-08-04T05:56:34;4.80;;;3.33;;
1206;SDS011;593;53.184;8.216;2022-08-04T05:59:02;4.80;;;3.63;;
1206;SDS011;593;53.184;8.216;2022-08-04T06:01:29;8.70;;;2.70;;
1206;SDS011;593;53.184;8.216;2022-08-04T06:03:56;4.60;;;4.20;;
1206;SDS011;593;53.184;8.216;2022-08-04T06:06:23;7.60;;;3.73;;
1206;SDS011;593;53.184;8.216;2022-08-04T06:08:49;6.47;;;3.53;;
1206;SDS011;593;53.184;8.216;2022-08-04T06:11:15;6.80;;;3.67;;
1206;SDS011;593;53.184;8.216;2022-08-04T06:13:47;7.47;;;3.63;;
1206;SDS011;593;53.184;8.216;2022-08-04T06:16:22;6.57;;;3.80;;
1206;SDS011;593;53.184;8.216;2022-08-04T06:18:49;7.67;;;3.13;;
1206;SDS011;593;53.184;8.216;2022-08-04T06:21:21;5.47;;;3.53;;
1206;SDS011;593;53.184;8.216;2022-08-04T06:23:49;5.47;;;4.00;;
1206;SDS011;593;53.184;8.216;2022-08-04T06:26:16;4.50;;;3.33;;
1206;SDS011;593;53.184;8.216;2022-08-04T06:28:47;4.20;;;3.77;;
1206;SDS011;593;53.184;8.216;2022-08-04T06:31:15;3.77;;;2.83;;
1206;SDS011;593;53.184;8.216;2022-08-04T06:33:57;8.10;;;3.47;;
1206;SDS011;593;53.184;8.216;2022-08-04T06:36:26;3.47;;;3.17;;
1206;SDS011;593;53.184;8.216;2022-08-04T06:38:55;4.50;;;3.70;;
1206;SDS011;593;53.184;8.216;2022-08-04T06:41:21;7.87;;;3.70;;
1206;SDS011;593;53.184;8.216;2022-08-04T06:43:48;6.20;;;3.37;;
1206;SDS011;593;53.184;8.216;2022-08-04T06:46:15;4.40;;;2.63;;
1206;SDS011;593;53.184;8.216;2022-08-04T06:48:42;4.30;;;2.93;;
1206;SDS011;593;53.184;8.216;2022-08-04T06:51:09;3.10;;;2.80;;
1206;SDS011;593;53.184;8.216;2022-08-04T06:53:36;4.70;;;3.20;;
1206;SDS011;593;53.184;8.216;2022-08-04T06:56:02;4.10;;;3.47;;
1206;SDS011;593;53.184;8.216;2022-08-04T06:58:29;3.30;;;3.10;;
1206;SDS011;593;53.184;8.216;2022-08-04T07:00:56;3.73;;;3.40;;
1206;SDS011;593;53.184;8.216;2022-08-04T07:03:26;2.93;;;2.40;;
1206;SDS011;593;53.184;8.216;2022-08-04T07:05:52;3.63;;;3.33;;
1206;SDS011;593;53.184;8.216;2022-08-04T07:08:18;3.20;;;2.90;;
1206;SDS011;593;53.184;8.216;2022-08-04T07:10:45;5.10;;;3.40;;
1206;SDS011;593;53.184;8.216;2022-08-04T07:13:11;4.07;;;2.93;;
1206;SDS011;593;53.184;8.216;2022-08-04T07:15:37;5.93;;;3.10;;
1206;SDS011;593;53.184;8.216;2022-08-04T07:18:05;3.13;;;2.93;;
1206;SDS011;593;53.184;8.216;2022-08-04T07:20:31;2.97;;;2.20;;
1206;SDS011;593;53.184;8.216;2022-08-04T07:22:57;7.67;;;3.43;;
1206;SDS011;593;53.184;8.216;2022-08-04T07:25:25;9.37;;;3.60;;
1206;SDS011;593;53.184;8.216;2022-08-04T07:27:51;3.23;;;2.60;;
1206;SDS011;593;53.184;8.216;2022-08-04T07:30:16;2.90;;;2.50;;
1206;SDS011;593;53.184;8.216;2022-08-04T07:32:42;5.33;;;2.90;;
1206;SDS011;593;53.184;8.216;2022-08-04T07:35:10;5.27;;;2.43;;
1206;SDS011;593;53.184;8.216;2022-08-04T07:37:37;7.20;;;3.40;;
1206;SDS011;593;53.184;8.216;2022-08-04T07:40:02;6.27;;;2.63;;
1206;SDS011;593;53.184;8.216;2022-08-04T07:42:29;4.10;;;3.70;;
1206;SDS011;593;53.184;8.216;2022-08-04T07:44:54;6.73;;;2.80;;
1206;SDS011;593;53.184;8.216;2022-08-04T07:47:20;6.10;;;2.40;;
1206;SDS011;593;53.184;8.216;2022-08-04T07:49:46;4.93;;;2.83;;
1206;SDS011;593;53.184;8.216;2022-08-04T07:52:11;4.23;;;2.23;;
1206;SDS011;593;53.184;8.216;2022-08-04T07:54:37;4.20;;;2.50;;
1206;SDS011;593;53.184;8.216;2022-08-04T07:57:03;4.10;;;2.13;;
1206;SDS011;593;53.184;8.216;2022-08-04T07:59:29;3.37;;;1.90;;
1206;SDS011;593;53.184;8.216;2022-08-04T08:01:57;2.63;;;2.00;;
1206;SDS011;593;53.184;8.216;2022-08-04T08:04:25;5.03;;;2.53;;
1206;SDS011;593;53.184;8.216;2022-08-04T08:06:52;2.90;;;1.80;;
1206;SDS011;593;53.184;8.216;2022-08-04T08:09:21;2.87;;;1.63;;
1206;SDS011;593;53.184;8.216;2022-08-04T08:11:48;5.67;;;3.37;;
1206;SDS011;593;53.184;8.216;2022-08-04T08:14:16;3.90;;;2.00;;
1206;SDS011;593;53.184;8.216;2022-08-04T08:16:42;4.13;;;2.50;;
1206;SDS011;593;53.184;8.216;2022-08-04T08:19:08;3.97;;;1.87;;
1206;SDS011;593;53.184;8.216;2022-08-04T08:21:34;2.30;;;1.80;;
1206;SDS011;593;53.184;8.216;2022-08-04T08:24:00;2.40;;;2.00;;
1206;SDS011;593;53.184;8.216;2022-08-04T08:26:26;3.70;;;3.23;;
1206;SDS011;593;53.184;8.216;2022-08-04T08:28:52;2.83;;;1.80;;
1206;SDS011;593;53.184;8.216;2022-08-04T08:31:18;4.60;;;2.00;;
1206;SDS011;593;53.184;8.216;2022-08-04T08:33:44;5.30;;;1.97;;
1206;SDS011;593;53.184;8.216;2022-08-04T08:39:00;2.87;;;1.77;;
1206;SDS011;593;53.184;8.216;2022-08-04T08:47:18;2.83;;;1.90;;
1206;SDS011;593;53.184;8.216;2022-08-04T08:50:14;1.87;;;1.77;;
1206;SDS011;593;53.184;8.216;2022-08-04T09:01:15;3.10;;;1.43;;
1206;SDS011;593;53.184;8.216;2022-08-04T09:10:02;2.00;;;1.80;;
1206;SDS011;593;53.184;8.216;2022-08-04T09:12:50;2.53;;;1.87;;
1206;SDS011;593;53.184;8.216;2022-08-04T09:15:32;1.93;;;1.80;;
1206;SDS011;593;53.184;8.216;2022-08-04T09:20:46;4.80;;;2.43;;
1206;SDS011;593;53.184;8.216;2022-08-04T09:26:00;2.40;;;2.20;;
1206;SDS011;593;53.184;8.216;2022-08-04T09:28:49;2.53;;;2.10;;
1206;SDS011;593;53.184;8.216;2022-08-04T09:31:22;2.07;;;1.97;;
1206;SDS011;593;53.184;8.216;2022-08-04T09:33:58;4.10;;;2.47;;
1206;SDS011;593;53.184;8.216;2022-08-04T09:36:38;2.23;;;2.13;;
1206;SDS011;593;53.184;8.216;2022-08-04T09:44:51;2.47;;;2.30;;
1206;SDS011;593;53.184;8.216;2022-08-04T09:47:46;2.90;;;1.93;;
1206;SDS011;593;53.184;8.216;2022-08-04T09:55:40;2.70;;;2.50;;
1206;SDS011;593;53.184;8.216;2022-08-04T10:00:59;3.53;;;3.30;;
1206;SDS011;593;53.184;8.216;2022-08-04T10:03:27;2.60;;;2.40;;
1206;SDS011;593;53.184;8.216;2022-08-04T10:12:12;3.17;;;2.93;;
1206;SDS011;593;53.184;8.216;2022-08-04T10:14:51;2.90;;;2.70;;
1206;SDS011;593;53.184;8.216;2022-08-04T10:32:10;2.40;;;2.30;;
1206;SDS011;593;53.184;8.216;2022-08-04T10:34:40;3.17;;;2.80;;
1206;SDS011;593;53.184;8.216;2022-08-04T10:40:31;2.60;;;2.50;;
1206;SDS011;593;53.184;8.216;2022-08-04T10:43:29;2.30;;;2.20;;
1206;SDS011;593;53.184;8.216;2022-08-04T10:46:06;2.70;;;2.50;;
1206;SDS011;593;53.184;8.216;2022-08-04T10:54:28;2.57;;;2.37;;
1206;SDS011;593;53.184;8.216;2022-08-04T10:57:06;2.50;;;2.40;;
1206;SDS011;593;53.184;8.216;2022-08-04T11:05:17;2.30;;;2.20;;
1206;SDS011;593;53.184;8.216;2022-08-04T11:07:58;3.13;;;2.60;;
1206;SDS011;593;53.184;8.216;2022-08-04T11:10:27;2.90;;;2.70;;
1206;SDS011;593;53.184;8.216;2022-08-04T11:12:56;2.83;;;2.70;;
1206;SDS011;593;53.184;8.216;2022-08-04T11:15:48;2.47;;;2.10;;
1206;SDS011;593;53.184;8.216;2022-08-04T11:18:24;2.60;;;2.50;;
1206;SDS011;593;53.184;8.216;2022-08-04T11:21:00;2.70;;;2.33;;
1206;SDS011;593;53.184;8.216;2022-08-04T11:23:33;3.10;;;2.90;;
1206;SDS011;593;53.184;8.216;2022-08-04T11:26:11;3.40;;;2.93;;
1206;SDS011;593;53.184;8.216;2022-08-04T11:28:47;2.70;;;2.50;;
1206;SDS011;593;53.184;8.216;2022-08-04T11:31:22;2.93;;;2.73;;
1206;SDS011;593;53.184;8.216;2022-08-04T11:39:07;2.80;;;2.60;;
1206;SDS011;593;53.184;8.216;2022-08-04T11:41:44;4.47;;;3.00;;
1206;SDS011;593;53.184;8.216;2022-08-04T11:44:18;4.27;;;2.80;;
1206;SDS011;593;53.184;8.216;2022-08-04T11:46:52;2.40;;;2.17;;
1206;SDS011;593;53.184;8.216;2022-08-04T11:49:26;2.53;;;2.33;;
1206;SDS011;593;53.184;8.216;2022-08-04T11:51:57;2.93;;;2.63;;
1206;SDS011;593;53.184;8.216;2022-08-04T11:54:24;3.43;;;2.50;;
1206;SDS011;593;53.184;8.216;2022-08-04T11:56:50;2.43;;;2.23;;
1206;SDS011;593;53.184;8.216;2022-08-04T11:59:16;2.00;;;1.90;;
1206;SDS011;593;53.184;8.216;2022-08-04T12:07:12;3.93;;;3.63;;
1206;SDS011;593;53.184;8.216;2022-08-04T12:18:49;6.60;;;2.93;;
1206;SDS011;593;53.184;8.216;2022-08-04T12:21:30;5.30;;;2.97;;
1206;SDS011;593;53.184;8.216;2022-08-04T12:24:01;2.90;;;2.80;;
1206;SDS011;593;53.184;8.216;2022-08-04T12:26:31;3.57;;;3.27;;
1206;SDS011;593;53.184;8.216;2022-08-04T12:29:02;3.20;;;3.00;;
1206;SDS011;593;53.184;8.216;2022-08-04T12:31:34;5.70;;;3.30;;
1206;SDS011;593;53.184;8.216;2022-08-04T12:34:07;2.60;;;2.50;;
1206;SDS011;593;53.184;8.216;2022-08-04T12:39:26;4.27;;;3.10;;
1206;SDS011;593;53.184;8.216;2022-08-04T12:42:12;2.80;;;2.60;;
1206;SDS011;593;53.184;8.216;2022-08-04T12:44:43;3.17;;;2.43;;
1206;SDS011;593;53.184;8.216;2022-08-04T12:47:12;2.93;;;2.60;;
1206;SDS011;593;53.184;8.216;2022-08-04T12:49:40;4.00;;;3.10;;
1206;SDS011;593;53.184;8.216;2022-08-04T12:52:08;4.37;;;2.63;;
1206;SDS011;593;53.184;8.216;2022-08-04T12:54:35;3.67;;;2.67;;
1206;SDS011;593;53.184;8.216;2022-08-04T12:57:03;2.73;;;2.53;;
1206;SDS011;593;53.184;8.216;2022-08-04T12:59:36;3.00;;;2.40;;
1206;SDS011;593;53.184;8.216;2022-08-04T13:02:09;3.70;;;3.30;;
1206;SDS011;593;53.184;8.216;2022-08-04T13:04:40;2.30;;;2.20;;
1206;SDS011;593;53.184;8.216;2022-08-04T13:07:15;3.27;;;3.07;;
1206;SDS011;593;53.184;8.216;2022-08-04T13:09:44;3.00;;;2.20;;
1206;SDS011;593;53.184;8.216;2022-08-04T13:12:12;3.30;;;2.50;;
1206;SDS011;593;53.184;8.216;2022-08-04T13:14:40;5.43;;;3.27;;
1206;SDS011;593;53.184;8.216;2022-08-04T13:17:12;3.77;;;3.40;;
1206;SDS011;593;53.184;8.216;2022-08-04T13:19:38;2.80;;;2.60;;
1206;SDS011;593;53.184;8.216;2022-08-04T13:22:14;2.80;;;2.60;;
1206;SDS011;593;53.184;8.216;2022-08-04T13:24:49;3.00;;;2.13;;
1206;SDS011;593;53.184;8.216;2022-08-04T13:27:16;3.47;;;2.93;;
1206;SDS011;593;53.184;8.216;2022-08-04T13:29:43;5.10;;;3.00;;
1206;SDS011;593;53.184;8.216;2022-08-04T13:32:17;2.80;;;2.33;;
1206;SDS011;593;53.184;8.216;2022-08-04T13:34:46;4.60;;;2.67;;
1206;SDS011;593;53.184;8.216;2022-08-04T13:37:14;2.70;;;2.23;;
1206;SDS011;593;53.184;8.216;2022-08-04T13:39:45;3.30;;;2.43;;
1206;SDS011;593;53.184;8.216;2022-08-04T13:42:13;3.07;;;2.57;;
1206;SDS011;593;53.184;8.216;2022-08-04T13:44:40;6.63;;;1.97;;
1206;SDS011;593;53.184;8.216;2022-08-04T13:47:21;3.90;;;2.23;;
1206;SDS011;593;53.184;8.216;2022-08-04T13:50:07;3.20;;;2.30;;
1206;SDS011;593;53.184;8.216;2022-08-04T13:52:36;3.90;;;3.30;;
1206;SDS011;593;53.184;8.216;2022-08-04T13:55:03;3.60;;;1.93;;
1206;SDS011;593;53.184;8.216;2022-08-04T13:57:32;3.93;;;3.63;;
1206;SDS011;593;53.184;8.216;2022-08-04T14:00:07;3.03;;;2.73;;
1206;SDS011;593;53.184;8.216;2022-08-04T14:05:20;3.43;;;2.40;;
1206;SDS011;593;53.184;8.216;2022-08-04T14:07:53;5.17;;;1.70;;
1206;SDS011;593;53.184;8.216;2022-08-04T14:10:22;6.27;;;2.17;;
1206;SDS011;593;53.184;8.216;2022-08-04T14:12:49;3.53;;;1.93;;
1206;SDS011;593;53.184;8.216;2022-08-04T14:15:32;5.53;;;1.83;;
1206;SDS011;593;53.184;8.216;2022-08-04T14:21:05;2.30;;;2.20;;
1206;SDS011;593;53.184;8.216;2022-08-04T14:26:14;4.63;;;1.97;;
1206;SDS011;593;53.184;8.216;2022-08-04T14:28:47;2.07;;;1.40;;
1206;SDS011;593;53.184;8.216;2022-08-04T14:31:14;2.40;;;1.80;;
1206;SDS011;593;53.184;8.216;2022-08-04T14:33:45;2.17;;;1.57;;
1206;SDS011;593;53.184;8.216;2022-08-04T14:36:12;3.07;;;1.70;;
1206;SDS011;593;53.184;8.216;2022-08-04T14:38:56;2.23;;;1.83;;
1206;SDS011;593;53.184;8.216;2022-08-04T14:41:23;2.63;;;2.10;;
1206;SDS011;593;53.184;8.216;2022-08-04T14:43:52;1.87;;;1.70;;
1206;SDS011;593;53.184;8.216;2022-08-04T14:46:22;3.17;;;1.93;;
1206;SDS011;593;53.184;8.216;2022-08-04T14:51:45;1.90;;;1.67;;
1206;SDS011;593;53.184;8.216;2022-08-04T14:54:28;3.63;;;1.77;;
1206;SDS011;593;53.184;8.216;2022-08-04T14:56:56;1.30;;;1.20;;
1206;SDS011;593;53.184;8.216;2022-08-04T14:59:24;3.60;;;1.67;;
1206;SDS011;593;53.184;8.216;2022-08-04T15:01:51;1.93;;;1.37;;
1206;SDS011;593;53.184;8.216;2022-08-04T15:04:17;2.43;;;1.50;;
1206;SDS011;593;53.184;8.216;2022-08-04T15:06:43;1.37;;;1.20;;
1206;SDS011;593;53.184;8.216;2022-08-04T15:09:10;1.17;;;1.10;;
1206;SDS011;593;53.184;8.216;2022-08-04T15:11:36;1.47;;;1.37;;
1206;SDS011;593;53.184;8.216;2022-08-04T15:14:02;1.63;;;1.07;;
1206;SDS011;593;53.184;8.216;2022-08-04T15:16:30;3.07;;;1.00;;
1206;SDS011;593;53.184;8.216;2022-08-04T15:18:57;3.93;;;1.37;;
1206;SDS011;593;53.184;8.216;2022-08-04T15:21:25;1.30;;;0.80;;
1206;SDS011;593;53.184;8.216;2022-08-04T15:23:55;1.37;;;1.27;;
1206;SDS011;593;53.184;8.216;2022-08-04T15:26:24;1.63;;;1.17;;
1206;SDS011;593;53.184;8.216;2022-08-04T15:29:00;1.20;;;1.10;;
1206;SDS011;593;53.184;8.216;2022-08-04T15:31:30;2.93;;;1.00;;
1206;SDS011;593;53.184;8.216;2022-08-04T15:34:02;1.80;;;1.10;;
1206;SDS011;593;53.184;8.216;2022-08-04T15:49:26;1.00;;;0.90;;
1206;SDS011;593;53.184;8.216;2022-08-04T15:51:58;1.17;;;1.07;;
1206;SDS011;593;53.184;8.216;2022-08-04T15:54:25;1.13;;;0.90;;
1206;SDS011;593;53.184;8.216;2022-08-04T15:56:50;1.20;;;0.97;;
1206;SDS011;593;53.184;8.216;2022-08-04T15:59:23;1.17;;;1.07;;
1206;SDS011;593;53.184;8.216;2022-08-04T16:08:12;0.97;;;0.97;;
1206;SDS011;593;53.184;8.216;2022-08-04T16:10:38;2.37;;;1.10;;
1206;SDS011;593;53.184;8.216;2022-08-04T16:15:53;1.40;;;1.10;;
1206;SDS011;593;53.184;8.216;2022-08-04T16:18:21;2.00;;;1.10;;
1206;SDS011;593;53.184;8.216;2022-08-04T16:21:03;2.13;;;1.00;;
1206;SDS011;593;53.184;8.216;2022-08-04T16:27:02;2.93;;;1.83;;
1206;SDS011;593;53.184;8.216;2022-08-04T16:34:33;0.90;;;0.90;;
1206;SDS011;593;53.184;8.216;2022-08-04T16:37:01;1.57;;;1.10;;
1206;SDS011;593;53.184;8.216;2022-08-04T16:39:29;1.57;;;1.30;;
1206;SDS011;593;53.184;8.216;2022-08-04T16:41:55;1.73;;;1.40;;
1206;SDS011;593;53.184;8.216;2022-08-04T16:46:52;3.10;;;2.10;;
1206;SDS011;593;53.184;8.216;2022-08-04T16:49:17;1.57;;;0.90;;
1206;SDS011;593;53.184;8.216;2022-08-04T16:51:43;1.17;;;1.03;;
1206;SDS011;593;53.184;8.216;2022-08-04T16:54:09;1.20;;;1.10;;
1206;SDS011;593;53.184;8.216;2022-08-04T16:56:34;1.70;;;1.20;;
1206;SDS011;593;53.184;8.216;2022-08-04T16:59:06;1.40;;;1.10;;
1206;SDS011;593;53.184;8.216;2022-08-04T17:01:36;0.90;;;0.80;;
1206;SDS011;593;53.184;8.216;2022-08-04T17:04:08;1.30;;;1.20;;
1206;SDS011;593;53.184;8.216;2022-08-04T17:06:36;1.63;;;1.03;;
1206;SDS011;593;53.184;8.216;2022-08-04T17:09:04;1.10;;;0.90;;
1206;SDS011;593;53.184;8.216;2022-08-04T17:11:37;1.07;;;0.90;;
1206;SDS011;593;53.184;8.216;2022-08-04T17:14:03;1.33;;;1.10;;
1206;SDS011;593;53.184;8.216;2022-08-04T17:16:29;1.00;;;0.80;;
1206;SDS011;593;53.184;8.216;2022-08-04T17:18:57;1.23;;;1.00;;
1206;SDS011;593;53.184;8.216;2022-08-04T17:21:24;1.50;;;0.80;;
1206;SDS011;593;53.184;8.216;2022-08-04T17:24:01;1.20;;;1.10;;
1206;SDS011;593;53.184;8.216;2022-08-04T17:26:29;1.87;;;0.90;;
1206;SDS011;593;53.184;8.216;2022-08-04T17:28:56;1.07;;;1.00;;
1206;SDS011;593;53.184;8.216;2022-08-04T17:31:24;0.90;;;0.90;;
1206;SDS011;593;53.184;8.216;2022-08-04T17:33:52;1.27;;;0.90;;
1206;SDS011;593;53.184;8.216;2022-08-04T17:36:26;1.60;;;1.50;;
1206;SDS011;593;53.184;8.216;2022-08-04T17:38:55;1.33;;;1.23;;
1206;SDS011;593;53.184;8.216;2022-08-04T17:41:23;4.20;;;1.20;;
1206;SDS011;593;53.184;8.216;2022-08-04T17:46:21;1.40;;;1.30;;
1206;SDS011;593;53.184;8.216;2022-08-04T17:49:10;1.90;;;1.00;;
1206;SDS011;593;53.184;8.216;2022-08-04T17:51:55;1.20;;;1.10;;
1206;SDS011;593;53.184;8.216;2022-08-04T17:56:50;1.50;;;1.00;;
1206;SDS011;593;53.184;8.216;2022-08-04T18:01:54;2.60;;;1.20;;
1206;SDS011;593;53.184;8.216;2022-08-04T18:04:25;1.87;;;1.10;;
1206;SDS011;593;53.184;8.216;2022-08-04T18:06:51;4.90;;;1.60;;
1206;SDS011;593;53.184;8.216;2022-08-04T18:09:20;4.70;;;1.60;;
1206;SDS011;593;53.184;8.216;2022-08-04T18:11:51;1.80;;;1.10;;
1206;SDS011;593;53.184;8.216;2022-08-04T18:14:20;3.07;;;1.50;;
1206;SDS011;593;53.184;8.216;2022-08-04T18:16:46;5.13;;;1.60;;
1206;SDS011;593;53.184;8.216;2022-08-04T18:19:12;5.90;;;2.33;;
1206;SDS011;593;53.184;8.216;2022-08-04T18:21:39;2.67;;;1.77;;
1206;SDS011;593;53.184;8.216;2022-08-04T18:24:05;3.80;;;1.70;;
1206;SDS011;593;53.184;8.216;2022-08-04T18:26:30;3.07;;;1.80;;
1206;SDS011;593;53.184;8.216;2022-08-04T18:28:55;8.77;;;2.40;;
1206;SDS011;593;53.184;8.216;2022-08-04T18:31:21;3.80;;;1.53;;
1206;SDS011;593;53.184;8.216;2022-08-04T18:33:46;4.73;;;1.97;;
1206;SDS011;593;53.184;8.216;2022-08-04T18:36:12;3.77;;;1.87;;
1206;SDS011;593;53.184;8.216;2022-08-04T18:38:38;5.23;;;2.17;;
1206;SDS011;593;53.184;8.216;2022-08-04T18:41:03;2.50;;;1.87;;
1206;SDS011;593;53.184;8.216;2022-08-04T18:43:28;4.37;;;2.37;;
1206;SDS011;593;53.184;8.216;2022-08-04T18:45:54;8.20;;;2.37;;
1206;SDS011;593;53.184;8.216;2022-08-04T18:48:19;3.20;;;1.97;;
1206;SDS011;593;53.184;8.216;2022-08-04T18:50:45;5.97;;;2.80;;
1206;SDS011;593;53.184;8.216;2022-08-04T18:53:11;5.03;;;2.17;;
1206;SDS011;593;53.184;8.216;2022-08-04T18:55:36;4.43;;;2.33;;
1206;SDS011;593;53.184;8.216;2022-08-04T18:58:01;4.40;;;2.67;;
1206;SDS011;593;53.184;8.216;2022-08-04T19:00:27;4.20;;;2.00;;
1206;SDS011;593;53.184;8.216;2022-08-04T19:02:52;4.17;;;2.70;;
1206;SDS011;593;53.184;8.216;2022-08-04T19:05:18;4.07;;;2.23;;
1206;SDS011;593;53.184;8.216;2022-08-04T19:07:43;4.23;;;2.80;;
1206;SDS011;593;53.184;8.216;2022-08-04T19:10:09;2.47;;;2.27;;
1206;SDS011;593;53.184;8.216;2022-08-04T19:12:34;2.87;;;2.07;;
1206;SDS011;593;53.184;8.216;2022-08-04T19:15:00;4.40;;;2.53;;
1206;SDS011;593;53.184;8.216;2022-08-04T19:17:26;4.37;;;2.17;;
1206;SDS011;593;53.184;8.216;2022-08-04T19:19:52;3.70;;;2.43;;
1206;SDS011;593;53.184;8.216;2022-08-04T19:22:18;3.97;;;2.00;;
1206;SDS011;593;53.184;8.216;2022-08-04T19:24:43;2.70;;;1.70;;
1206;SDS011;593;53.184;8.216;2022-08-04T19:27:08;2.63;;;2.10;;
1206;SDS011;593;53.184;8.216;2022-08-04T19:29:34;2.00;;;1.90;;
1206;SDS011;593;53.184;8.216;2022-08-04T19:32:01;2.53;;;2.07;;
1206;SDS011;593;53.184;8.216;2022-08-04T19:34:26;4.73;;;2.33;;
1206;SDS011;593;53.184;8.216;2022-08-04T19:36:52;3.77;;;2.30;;
1206;SDS011;593;53.184;8.216;2022-08-04T19:39:17;2.87;;;2.57;;
1206;SDS011;593;53.184;8.216;2022-08-04T19:41:42;3.50;;;2.33;;
1206;SDS011;593;53.184;8.216;2022-08-04T19:44:08;5.07;;;2.87;;
1206;SDS011;593;53.184;8.216;2022-08-04T19:46:35;3.20;;;2.20;;
1206;SDS011;593;53.184;8.216;2022-08-04T19:49:00;4.40;;;3.23;;
1206;SDS011;593;53.184;8.216;2022-08-04T19:51:29;4.67;;;2.27;;
1206;SDS011;593;53.184;8.216;2022-08-04T19:53:56;4.17;;;2.47;;
1206;SDS011;593;53.184;8.216;2022-08-04T19:56:23;2.67;;;2.50;;
1206;SDS011;593;53.184;8.216;2022-08-04T19:58:48;5.57;;;3.30;;
1206;SDS011;593;53.184;8.216;2022-08-04T20:01:14;2.43;;;2.23;;
1206;SDS011;593;53.184;8.216;2022-08-04T20:03:39;3.20;;;2.90;;
1206;SDS011;593;53.184;8.216;2022-08-04T20:06:04;4.17;;;2.57;;
1206;SDS011;593;53.184;8.216;2022-08-04T20:08:30;3.87;;;3.50;;
1206;SDS011;593;53.184;8.216;2022-08-04T20:10:55;3.90;;;3.07;;
1206;SDS011;593;53.184;8.216;2022-08-04T20:13:21;3.87;;;2.73;;
1206;SDS011;593;53.184;8.216;2022-08-04T20:15:48;5.07;;;2.60;;
1206;SDS011;593;53.184;8.216;2022-08-04T20:18:13;4.97;;;3.97;;
1206;SDS011;593;53.184;8.216;2022-08-04T20:20:39;3.80;;;3.50;;
1206;SDS011;593;53.184;8.216;2022-08-04T20:23:04;4.50;;;3.33;;
1206;SDS011;593;53.184;8.216;2022-08-04T20:25:30;4.33;;;3.77;;